createdAt,value
2022-12-17T00:00:01.756Z,17.75
2022-12-17T00:02:51.724Z,16.70
2022-12-17T00:05:37.791Z,17.70
2022-12-17T00:08:23.827Z,16.38
2022-12-17T00:11:09.646Z,15.30
2022-12-17T00:13:55.844Z,15.82
2022-12-17T00:16:42.302Z,16.10
2022-12-17T00:19:29.603Z,14.55
2022-12-17T00:22:15.670Z,14.45
2022-12-17T00:25:01.524Z,14.10
2022-12-17T00:27:47.583Z,13.65
2022-12-17T00:30:33.555Z,13.95
2022-12-17T00:33:19.677Z,12.25
2022-12-17T00:36:11.998Z,14.73
2022-12-17T00:38:58.555Z,13.25
2022-12-17T00:41:45.509Z,14.32
2022-12-17T00:44:31.374Z,14.30
2022-12-17T00:47:28.812Z,15.18
2022-12-17T00:50:13.776Z,16.88
2022-12-17T00:53:02.097Z,13.40
2022-12-17T00:55:48.148Z,14.32
2022-12-17T00:58:34.569Z,14.88
2022-12-17T01:01:20.677Z,14.52
2022-12-17T01:04:06.491Z,15.02
2022-12-17T01:06:52.763Z,15.20
2022-12-17T01:09:41.011Z,15.45
2022-12-17T01:12:27.031Z,16.63
2022-12-17T01:15:13.656Z,18.25
2022-12-17T01:17:59.682Z,17.08
2022-12-17T01:20:45.617Z,18.95
2022-12-17T01:23:31.585Z,17.48
2022-12-17T01:26:22.796Z,19.60
2022-12-17T01:29:08.770Z,20.08
2022-12-17T01:31:54.676Z,17.50
2022-12-17T01:34:40.690Z,18.92
2022-12-17T01:37:26.783Z,20.42
2022-12-17T01:40:12.638Z,20.67
2022-12-17T01:43:03.583Z,20.75
2022-12-17T01:45:56.365Z,20.95
2022-12-17T01:48:48.720Z,18.33
2022-12-17T01:51:36.550Z,22.10
2022-12-17T01:54:37.296Z,21.65
2022-12-17T01:57:24.940Z,21.05
2022-12-17T02:00:17.344Z,18.85
2022-12-17T02:03:03.316Z,21.90
2022-12-17T02:06:00.233Z,21.40
2022-12-17T02:08:57.139Z,22.20
2022-12-17T02:11:54.385Z,20.40
2022-12-17T02:14:49.489Z,19.98
2022-12-17T02:17:44.044Z,18.92
2022-12-17T02:20:43.201Z,20.85
2022-12-17T02:23:43.284Z,18.52
2022-12-17T02:26:34.228Z,22.00
2022-12-17T02:29:24.331Z,22.77
2022-12-17T02:32:12.097Z,22.80
2022-12-17T02:35:03.618Z,20.42
2022-12-17T02:37:50.434Z,19.90
2022-12-17T02:40:37.328Z,23.10
2022-12-17T02:43:23.700Z,20.10
2022-12-17T02:46:12.612Z,21.40
2022-12-17T02:48:58.783Z,21.05
2022-12-17T02:51:47.805Z,21.75
2022-12-17T02:54:33.762Z,20.90
2022-12-17T02:57:19.504Z,19.83
2022-12-17T03:00:05.297Z,24.25
2022-12-17T03:02:52.659Z,21.88
2022-12-17T03:05:46.167Z,20.02
2022-12-17T03:08:32.702Z,21.37
2022-12-17T03:11:18.279Z,19.42
2022-12-17T03:14:04.198Z,20.50
2022-12-17T03:16:50.338Z,19.10
2022-12-17T03:19:37.568Z,21.40
2022-12-17T03:22:23.579Z,20.33
2022-12-17T03:25:08.704Z,20.60
2022-12-17T03:27:54.642Z,22.85
2022-12-17T03:30:43.219Z,22.08
2022-12-17T03:33:33.577Z,22.50
2022-12-17T03:36:21.094Z,20.45
2022-12-17T03:39:07.223Z,22.33
2022-12-17T03:41:53.130Z,22.40
2022-12-17T03:44:38.503Z,22.40
2022-12-17T03:47:24.323Z,22.20
2022-12-17T03:50:10.179Z,21.40
2022-12-17T03:52:59.982Z,21.67
2022-12-17T03:55:45.869Z,22.08
2022-12-17T03:58:31.817Z,21.20
2022-12-17T04:01:19.828Z,24.25
2022-12-17T04:04:05.894Z,22.48
2022-12-17T04:06:50.961Z,24.13
2022-12-17T04:09:37.968Z,21.67
2022-12-17T04:12:23.783Z,25.42
2022-12-17T04:15:09.470Z,23.80
2022-12-17T04:17:55.118Z,22.45
2022-12-17T04:20:40.865Z,22.58
2022-12-17T04:23:26.830Z,25.35
2022-12-17T04:26:14.003Z,24.63
2022-12-17T04:28:59.898Z,23.83
2022-12-17T04:31:46.027Z,23.50
2022-12-17T04:34:32.046Z,24.00
2022-12-17T04:37:18.088Z,21.45
2022-12-17T04:40:04.028Z,22.43
2022-12-17T04:42:51.132Z,25.48
2022-12-17T04:45:37.002Z,21.48
2022-12-17T04:48:25.441Z,22.25
2022-12-17T04:51:11.117Z,22.00
2022-12-17T04:53:57.044Z,21.63
2022-12-17T04:56:43.358Z,22.75
2022-12-17T04:59:32.936Z,22.58
2022-12-17T05:02:19.063Z,22.55
2022-12-17T05:05:05.123Z,25.58
2022-12-17T05:07:51.113Z,24.50
2022-12-17T05:10:37.225Z,24.05
2022-12-17T05:13:23.220Z,22.95
2022-12-17T05:16:15.114Z,25.17
2022-12-17T05:19:09.993Z,23.58
2022-12-17T05:21:55.976Z,24.53
2022-12-17T05:24:53.388Z,23.43
2022-12-17T05:27:39.261Z,25.35
2022-12-17T05:30:26.311Z,24.60
2022-12-17T05:33:19.360Z,27.27
2022-12-17T05:36:05.353Z,25.48
2022-12-17T05:38:51.063Z,20.45
2022-12-17T05:41:37.032Z,22.52
2022-12-17T05:44:23.085Z,23.65
2022-12-17T05:47:09.024Z,22.42
2022-12-17T05:49:56.406Z,21.25
2022-12-17T05:52:42.335Z,22.13
2022-12-17T05:55:28.206Z,21.48
2022-12-17T05:58:21.714Z,20.67
2022-12-17T06:01:07.493Z,19.10
2022-12-17T06:03:53.596Z,19.90
2022-12-17T06:06:40.967Z,19.95
2022-12-17T06:09:26.972Z,20.58
2022-12-17T06:12:13.028Z,19.58
2022-12-17T06:14:59.172Z,21.00
2022-12-17T06:17:45.234Z,20.20
2022-12-17T06:20:30.835Z,20.45
2022-12-17T06:23:22.450Z,22.02
2022-12-17T06:26:10.785Z,19.50
2022-12-17T06:28:56.900Z,21.10
2022-12-17T06:31:42.845Z,20.90
2022-12-17T06:34:28.729Z,20.27
2022-12-17T06:37:14.663Z,21.10
2022-12-17T06:40:00.987Z,20.60
2022-12-17T06:42:47.212Z,20.90
2022-12-17T06:45:36.129Z,23.17
2022-12-17T06:48:22.528Z,20.45
2022-12-17T06:51:08.364Z,20.85
2022-12-17T06:53:54.385Z,23.05
2022-12-17T06:56:41.412Z,20.48
2022-12-17T06:59:27.447Z,22.90
2022-12-17T07:02:13.546Z,22.20
2022-12-17T07:04:59.595Z,22.33
2022-12-17T07:07:45.578Z,21.23
2022-12-17T07:10:31.449Z,21.67
2022-12-17T07:13:25.074Z,22.73
2022-12-17T07:16:11.293Z,21.58
2022-12-17T07:18:57.310Z,22.10
2022-12-17T07:21:43.572Z,22.83
2022-12-17T07:24:29.628Z,19.83
2022-12-17T07:27:11.996Z,20.15
2022-12-17T07:29:58.997Z,21.67
2022-12-17T07:32:45.194Z,19.60
2022-12-17T07:35:31.301Z,18.23
2022-12-17T07:38:18.702Z,20.50
2022-12-17T07:41:04.662Z,19.88
2022-12-17T07:43:53.241Z,19.40
2022-12-17T07:46:52.040Z,21.30
2022-12-17T07:49:37.932Z,19.65
2022-12-17T07:52:23.743Z,22.95
2022-12-17T07:55:12.113Z,20.13
2022-12-17T07:58:01.538Z,23.65
2022-12-17T08:00:49.509Z,20.90
2022-12-17T08:03:37.377Z,19.63
2022-12-17T08:06:24.157Z,21.35
2022-12-17T08:09:10.151Z,21.80
2022-12-17T08:11:56.025Z,22.98
2022-12-17T08:14:42.041Z,22.40
2022-12-17T08:17:28.096Z,22.10
2022-12-17T08:20:15.344Z,23.20
2022-12-17T08:23:01.346Z,25.17
2022-12-17T08:25:43.663Z,21.52
2022-12-17T08:31:36.003Z,22.85
2022-12-17T08:34:24.252Z,24.30
2022-12-17T08:37:12.183Z,22.27
2022-12-17T08:39:58.363Z,24.77
2022-12-17T08:42:44.262Z,23.35
2022-12-17T08:45:30.163Z,23.88
2022-12-17T08:48:22.422Z,23.95
2022-12-17T08:51:08.817Z,26.23
2022-12-17T08:53:56.136Z,25.92
2022-12-17T08:56:41.947Z,28.85
2022-12-17T08:59:27.862Z,27.55
2022-12-17T09:02:13.822Z,28.60
2022-12-17T09:05:00.068Z,28.70
2022-12-17T09:07:46.058Z,29.48
2022-12-17T09:10:33.115Z,27.00
2022-12-17T09:13:21.264Z,26.73
2022-12-17T09:16:13.644Z,31.67
2022-12-17T09:19:00.159Z,28.60
2022-12-17T09:21:47.166Z,32.28
2022-12-17T09:24:33.466Z,28.88
2022-12-17T09:27:20.685Z,28.88
2022-12-17T09:30:06.772Z,27.85
2022-12-17T09:32:52.784Z,27.42
2022-12-17T09:35:38.759Z,26.67
2022-12-17T09:38:24.377Z,23.92
2022-12-17T09:41:10.412Z,28.67
2022-12-17T09:44:06.243Z,27.20
2022-12-17T09:46:59.762Z,26.30
2022-12-17T09:49:48.095Z,28.45
2022-12-17T09:52:41.299Z,26.65
2022-12-17T09:55:39.003Z,27.80
2022-12-17T09:58:32.509Z,25.08
2022-12-17T10:01:19.832Z,26.38
2022-12-17T10:04:06.779Z,26.30
2022-12-17T10:06:54.796Z,26.25
2022-12-17T10:09:41.045Z,26.02
2022-12-17T10:12:33.416Z,26.15
2022-12-17T10:15:19.397Z,24.15
2022-12-17T10:18:06.923Z,25.92
2022-12-17T10:20:58.004Z,24.10
2022-12-17T10:23:47.151Z,27.63
2022-12-17T10:26:37.021Z,25.90
2022-12-17T10:29:28.362Z,26.50
2022-12-17T10:32:17.247Z,24.65
2022-12-17T10:35:06.010Z,29.77
2022-12-17T10:37:54.529Z,27.35
2022-12-17T10:40:47.242Z,24.60
2022-12-17T10:43:46.529Z,27.80
2022-12-17T10:46:46.846Z,27.77
2022-12-17T10:49:35.797Z,22.70
2022-12-17T10:52:31.717Z,26.77
2022-12-17T10:55:22.160Z,26.30
2022-12-17T10:58:10.682Z,28.23
2022-12-17T11:00:59.623Z,28.58
2022-12-17T11:03:51.130Z,24.75
2022-12-17T11:06:44.150Z,26.60
2022-12-17T11:09:42.808Z,26.40
2022-12-17T11:12:31.138Z,28.65
2022-12-17T11:15:26.333Z,24.00
2022-12-17T11:18:12.827Z,27.87
2022-12-17T11:21:09.357Z,26.80
2022-12-17T11:24:00.222Z,23.35
2022-12-17T11:26:52.990Z,25.67
2022-12-17T11:29:39.131Z,26.15
2022-12-17T11:33:13.206Z,24.97
2022-12-17T11:36:12.090Z,21.92
2022-12-17T11:39:02.613Z,23.10
2022-12-17T11:42:06.587Z,23.45
2022-12-17T11:45:08.663Z,26.35
2022-12-17T11:48:06.408Z,23.85
2022-12-17T11:51:03.563Z,22.50
2022-12-17T11:54:07.617Z,25.60
2022-12-17T11:57:02.456Z,26.67
2022-12-17T11:59:55.043Z,23.23
2022-12-17T12:03:04.068Z,24.42
2022-12-17T12:06:05.662Z,25.73
2022-12-17T12:09:00.717Z,21.33
2022-12-17T12:11:52.889Z,23.10
2022-12-17T12:14:54.004Z,20.33
2022-12-17T12:18:02.109Z,22.73
2022-12-17T12:21:17.539Z,23.20
2022-12-17T12:24:21.503Z,22.87
2022-12-17T12:27:18.635Z,22.38
2022-12-17T12:30:17.212Z,22.02
2022-12-17T12:33:17.833Z,23.70
2022-12-17T12:36:05.176Z,19.53
2022-12-17T12:39:06.101Z,22.93
2022-12-17T12:42:09.574Z,22.87
2022-12-17T12:45:04.442Z,23.70
2022-12-17T12:48:05.740Z,22.77
2022-12-17T12:51:05.171Z,20.80
2022-12-17T12:53:51.146Z,24.60
2022-12-17T12:57:10.448Z,21.47
2022-12-17T12:59:56.428Z,21.07
2022-12-17T13:02:48.556Z,22.17
2022-12-17T13:05:34.494Z,22.33
2022-12-17T13:08:20.977Z,20.67
2022-12-17T13:10:50.939Z,22.10
2022-12-17T13:13:34.489Z,20.27
2022-12-17T13:16:22.849Z,22.50
2022-12-17T13:19:01.929Z,21.17
2022-12-17T13:21:32.626Z,21.07
2022-12-17T13:24:12.674Z,21.17
2022-12-17T13:26:46.402Z,22.17
2022-12-17T13:29:28.373Z,22.80
2022-12-17T13:32:14.110Z,19.40
2022-12-17T13:35:05.656Z,21.13
2022-12-17T13:37:52.574Z,18.57
2022-12-17T13:40:36.484Z,19.60
2022-12-17T13:43:04.908Z,20.87
2022-12-17T13:45:38.181Z,22.00
2022-12-17T13:48:07.155Z,21.40
2022-12-17T13:50:36.660Z,18.80
2022-12-17T13:55:23.873Z,19.67
2022-12-17T13:57:53.407Z,20.63
2022-12-17T14:00:26.002Z,19.95
2022-12-17T14:02:55.608Z,20.13
2022-12-17T14:05:30.445Z,19.48
2022-12-17T14:08:02.646Z,20.73
2022-12-17T14:10:33.394Z,21.47
2022-12-17T14:13:06.452Z,20.25
2022-12-17T14:15:36.091Z,19.90
2022-12-17T14:18:05.869Z,19.97
2022-12-17T14:20:37.165Z,20.30
2022-12-17T14:23:14.010Z,20.65
2022-12-17T14:25:45.783Z,21.47
2022-12-17T14:28:30.711Z,21.13
2022-12-17T14:34:07.643Z,19.02
2022-12-17T14:36:38.872Z,18.90
2022-12-17T14:39:19.040Z,17.70
2022-12-17T14:42:06.863Z,16.65
2022-12-17T14:44:35.779Z,16.40
2022-12-17T14:47:22.281Z,15.73
2022-12-17T14:50:05.352Z,16.83
2022-12-17T14:52:42.244Z,16.77
2022-12-17T14:55:26.509Z,19.27
2022-12-17T14:58:21.230Z,19.55
2022-12-17T15:00:54.588Z,15.20
2022-12-17T15:03:27.626Z,17.98
2022-12-17T15:06:02.365Z,15.47
2022-12-17T15:08:34.728Z,15.63
2022-12-17T15:14:09.882Z,16.90
2022-12-17T15:16:38.282Z,19.60
2022-12-17T15:19:06.629Z,15.23
2022-12-17T15:21:35.192Z,15.57
2022-12-17T15:24:03.732Z,15.60
2022-12-17T15:26:32.124Z,16.77
2022-12-17T15:29:00.425Z,15.45
2022-12-17T15:31:35.250Z,16.05
2022-12-17T15:34:04.097Z,16.73
2022-12-17T15:36:33.383Z,16.90
2022-12-17T15:39:01.749Z,16.67
2022-12-17T15:41:47.730Z,15.35
2022-12-17T15:44:16.268Z,16.13
2022-12-17T15:46:46.122Z,18.20
2022-12-17T15:49:14.704Z,16.63
2022-12-17T15:51:43.068Z,14.70
2022-12-17T15:54:11.396Z,15.18
2022-12-17T15:56:39.775Z,15.73
2022-12-17T15:59:08.005Z,14.70
2022-12-17T16:01:36.527Z,15.93
2022-12-17T16:04:10.766Z,14.43
2022-12-17T16:06:44.410Z,14.25
2022-12-17T16:09:12.746Z,16.45
2022-12-17T16:11:41.163Z,16.58
2022-12-17T16:14:09.916Z,15.85
2022-12-17T16:16:38.217Z,15.73
2022-12-17T16:19:07.891Z,16.65
2022-12-17T16:21:36.305Z,13.48
2022-12-17T16:24:05.763Z,16.60
2022-12-17T16:26:34.679Z,14.60
2022-12-17T16:29:03.094Z,15.32
2022-12-17T16:31:32.210Z,15.88
2022-12-17T16:34:00.727Z,15.10
2022-12-17T16:36:30.544Z,16.95
2022-12-17T16:38:58.960Z,18.25
2022-12-17T16:41:27.489Z,16.65
2022-12-17T16:43:55.828Z,17.42
2022-12-17T16:46:30.822Z,16.38
2022-12-17T16:49:06.679Z,17.25
2022-12-17T16:51:37.291Z,15.98
2022-12-17T16:54:07.905Z,18.77
2022-12-17T16:56:40.339Z,19.88
2022-12-17T16:59:11.696Z,17.75
2022-12-17T17:01:42.612Z,18.02
2022-12-17T17:04:13.109Z,17.60
2022-12-17T17:06:46.063Z,19.27
2022-12-17T17:09:15.591Z,20.13
2022-12-17T17:11:50.934Z,18.13
2022-12-17T17:14:20.860Z,17.55
2022-12-17T17:16:49.462Z,17.42
2022-12-17T17:19:18.578Z,16.58
2022-12-17T17:21:54.268Z,16.85
2022-12-17T17:24:25.836Z,16.10
2022-12-17T17:26:55.994Z,17.80
2022-12-17T17:29:24.434Z,17.90
2022-12-17T17:32:09.862Z,17.08
2022-12-17T17:34:39.595Z,16.73
2022-12-17T17:37:10.205Z,17.45
2022-12-17T17:39:38.596Z,17.33
2022-12-17T17:42:07.031Z,15.68
2022-12-17T17:44:35.656Z,17.25
2022-12-17T17:47:04.271Z,15.80
2022-12-17T17:49:32.669Z,18.10
2022-12-17T17:52:09.917Z,18.73
2022-12-17T17:54:40.952Z,17.25
2022-12-17T17:57:10.219Z,16.67
2022-12-17T17:59:39.385Z,18.27
2022-12-17T18:02:08.893Z,18.92
2022-12-17T18:04:37.815Z,17.83
2022-12-17T18:07:24.817Z,16.92
2022-12-17T18:09:55.325Z,17.70
2022-12-17T18:12:41.628Z,17.50
2022-12-17T18:15:16.334Z,18.50
2022-12-17T18:17:47.689Z,19.17
2022-12-17T18:20:17.047Z,18.95
2022-12-17T18:22:47.343Z,18.73
2022-12-17T18:25:18.147Z,17.17
2022-12-17T18:27:46.841Z,20.02
2022-12-17T18:30:16.305Z,15.55
2022-12-17T18:32:44.827Z,15.98
2022-12-17T18:35:17.005Z,18.70
2022-12-17T18:37:45.469Z,19.38
2022-12-17T18:40:13.859Z,16.58
2022-12-17T18:43:01.193Z,17.67
2022-12-17T18:45:30.053Z,17.67
2022-12-17T18:47:59.102Z,17.75
2022-12-17T18:50:27.436Z,17.63
2022-12-17T18:52:55.952Z,16.35
2022-12-17T18:55:24.301Z,19.00
2022-12-17T18:57:54.154Z,16.85
2022-12-17T19:00:22.825Z,19.65
2022-12-17T19:02:51.288Z,15.70
2022-12-17T19:05:19.710Z,19.13
2022-12-17T19:07:48.167Z,20.30
2022-12-17T19:10:16.774Z,18.55
2022-12-17T19:12:45.149Z,19.83
2022-12-17T19:15:15.011Z,21.60
2022-12-17T19:17:43.451Z,21.50
2022-12-17T19:20:12.991Z,19.65
2022-12-17T19:22:41.477Z,21.20
2022-12-17T19:25:11.409Z,20.48
2022-12-17T19:27:39.861Z,21.15
2022-12-17T19:30:10.629Z,19.90
2022-12-17T19:32:40.392Z,21.35
2022-12-17T19:35:09.480Z,20.08
2022-12-17T19:37:37.907Z,18.70
2022-12-17T19:40:07.817Z,17.95
2022-12-17T19:42:37.649Z,20.30
2022-12-17T19:45:10.038Z,18.20
2022-12-17T19:47:40.021Z,20.15
2022-12-17T19:50:09.278Z,19.00
2022-12-17T19:52:37.666Z,19.98
2022-12-17T19:55:07.348Z,17.23
2022-12-17T19:57:36.093Z,18.23
2022-12-17T20:00:05.307Z,21.35
2022-12-17T20:02:42.642Z,18.52
2022-12-17T20:05:11.657Z,17.67
2022-12-17T20:07:41.592Z,20.48
2022-12-17T20:10:10.425Z,19.17
2022-12-17T20:12:39.670Z,17.70
2022-12-17T20:15:09.509Z,19.60
2022-12-17T20:17:37.980Z,18.38
2022-12-17T20:20:09.789Z,18.33
2022-12-17T20:22:38.452Z,20.23
2022-12-17T20:25:09.895Z,17.23
2022-12-17T20:27:38.439Z,18.52
2022-12-17T20:30:08.809Z,20.17
2022-12-17T20:32:37.635Z,18.85
2022-12-17T20:35:09.403Z,21.60
2022-12-17T20:37:37.825Z,22.77
2022-12-17T20:40:08.376Z,20.60
2022-12-17T20:42:36.755Z,20.35
2022-12-17T20:45:05.982Z,18.75
2022-12-17T20:47:34.323Z,20.73
2022-12-17T20:50:02.739Z,18.25
2022-12-17T20:52:32.622Z,20.60
2022-12-17T20:55:01.058Z,21.13
2022-12-17T20:57:29.856Z,23.10
2022-12-17T20:59:58.571Z,22.88
2022-12-17T21:02:27.459Z,20.77
2022-12-17T21:04:56.246Z,20.70
2022-12-17T21:07:24.684Z,21.00
2022-12-17T21:09:54.476Z,19.40
2022-12-17T21:12:23.196Z,21.88
2022-12-17T21:14:51.634Z,19.90
2022-12-17T21:17:20.194Z,20.00
2022-12-17T21:19:48.698Z,20.48
2022-12-17T21:22:17.222Z,21.58
2022-12-17T21:24:45.726Z,20.15
2022-12-17T21:27:17.297Z,22.08
2022-12-17T21:29:45.642Z,22.00
2022-12-17T21:32:14.093Z,21.92
2022-12-17T21:34:42.724Z,20.52
2022-12-17T21:37:11.321Z,21.05
2022-12-17T21:39:39.924Z,22.08
2022-12-17T21:42:25.904Z,20.17
2022-12-17T21:44:55.898Z,19.10
2022-12-17T21:47:24.959Z,18.67
2022-12-17T21:49:53.700Z,20.60
2022-12-17T21:52:22.183Z,18.35
2022-12-17T21:54:50.896Z,18.55
2022-12-17T21:57:19.221Z,19.90
2022-12-17T21:59:48.348Z,19.35
2022-12-17T22:02:18.908Z,20.23
2022-12-17T22:04:47.442Z,21.52
2022-12-17T22:07:17.289Z,21.52
2022-12-17T22:10:09.804Z,21.02
2022-12-17T22:13:01.025Z,19.02
2022-12-17T22:15:38.817Z,22.00
2022-12-17T22:18:18.206Z,18.40
2022-12-17T22:20:46.545Z,22.35
2022-12-17T22:23:15.488Z,21.88
2022-12-17T22:25:44.158Z,18.65
2022-12-17T22:28:12.541Z,19.52
2022-12-17T22:30:58.506Z,19.67
2022-12-17T22:33:54.211Z,20.10
2022-12-17T22:38:05.169Z,21.40
2022-12-17T22:41:02.683Z,20.83
2022-12-17T22:44:31.890Z,17.40
2022-12-17T22:45:09.583Z,20.10
2022-12-17T22:47:39.250Z,18.70
2022-12-17T22:50:10.524Z,19.73
2022-12-17T22:52:40.477Z,19.20
2022-12-17T22:55:10.161Z,19.98
2022-12-17T22:57:38.943Z,18.80
2022-12-17T23:00:18.209Z,20.27
2022-12-17T23:02:46.549Z,18.27
2022-12-17T23:05:16.649Z,19.05
2022-12-17T23:07:45.004Z,20.75
2022-12-17T23:10:13.398Z,18.80
2022-12-17T23:12:54.339Z,18.25
2022-12-17T23:15:27.332Z,19.08
2022-12-17T23:17:59.042Z,18.83
2022-12-17T23:20:32.754Z,20.75
2022-12-17T23:23:01.826Z,19.23
2022-12-17T23:25:31.122Z,17.83
2022-12-17T23:27:59.590Z,21.55
2022-12-17T23:30:27.915Z,19.13
2022-12-17T23:32:56.244Z,20.30
2022-12-17T23:35:25.289Z,19.40
2022-12-17T23:37:55.870Z,18.48
2022-12-17T23:40:25.979Z,19.70
2022-12-17T23:42:54.299Z,18.55
2022-12-17T23:45:22.593Z,19.90
2022-12-17T23:47:51.221Z,18.70
2022-12-17T23:50:19.926Z,20.98
2022-12-17T23:52:48.453Z,21.00
2022-12-17T23:55:18.459Z,19.92
2022-12-17T23:57:46.761Z,17.17
